Overview Statistics Trail Chart Weather Telemetry Raw packets
 

This is the latest recevied weather packets stored in our database for station/object KK7ZBX. If no packets are shown the sender has not sent any weather packets the latest 10 day(s).

<< 1 2 3 4 5 6 >>
Time Temp. Humidity Pressure Rain* Wind** Luminosity Snow
1788240618 17.22° C 67% 1009.2 hPa - - - -
1788237027 18.33° C 65% 1009.1 hPa - - - -
1788235221 18.33° C 64% 1009.1 hPa - - - -
1788233418 18.89° C 63% 1008.8 hPa - - - -
1788229825 20° C 59% 1008.6 hPa - - - -
1788228009 20.56° C 58% 1008.7 hPa - - - -
1788226250 21.11° C 56% 1008.6 hPa - - - -
1788226210 21.11° C 56% 1008.6 hPa - - - -
1788224435 21.67° C 58% 1008.6 hPa - - - -
1788222616 21.67° C 58% 1008.6 hPa - - - -
1788220823 21.67° C 57% 1008.8 hPa - - - -
1788215411 21.67° C 56% 1009.7 hPa - - - -
1788213620 21.67° C 56% 1010 hPa - - - -
1788211808 21.11° C 57% 1010.4 hPa - - - -
1788208231 22.22° C 55% 1011.1 hPa - - - -
1788206434 20.56° C 57% 1011.5 hPa - - - -
1788204633 20° C 54% 1012 hPa - - - -
1788201026 19.44° C 59% 1012.8 hPa - - - -
1788193807 15° C 78% 1014 hPa - - - -
1788192015 14.44° C 80% 1014.2 hPa - - - -
1788190222 13.89° C 83% 1014.5 hPa - - - -
1788188413 13.33° C 87% 1014.6 hPa - - - -
1788183023 12.22° C 87% 1014.4 hPa - - - -
1788179427 12.78° C 84% 1014.6 hPa - - - -
1788175811 12.78° C 80% 1015.2 hPa - - - -

* Rain since midnight (hover to see other rain measurements)
** Current wind speed in m/s (hover to see current wind gust speed)